sensor_id;sensor_type;location;lat;lon;timestamp;P1;durP1;ratioP1;P2;durP2;ratioP2
12433;SDS011;6281;49.038;8.372;2022-09-23T00:00:56;2.63;;;2.40;;
12433;SDS011;6281;49.038;8.372;2022-09-23T00:03:24;2.60;;;2.40;;
12433;SDS011;6281;49.038;8.372;2022-09-23T00:05:57;2.87;;;2.07;;
12433;SDS011;6281;49.038;8.372;2022-09-23T00:08:25;3.23;;;2.43;;
12433;SDS011;6281;49.038;8.372;2022-09-23T00:10:52;3.57;;;2.37;;
12433;SDS011;6281;49.038;8.372;2022-09-23T00:13:19;2.87;;;2.40;;
12433;SDS011;6281;49.038;8.372;2022-09-23T00:15:47;3.10;;;2.60;;
12433;SDS011;6281;49.038;8.372;2022-09-23T00:18:14;3.63;;;2.80;;
12433;SDS011;6281;49.038;8.372;2022-09-23T00:20:42;3.10;;;2.70;;
12433;SDS011;6281;49.038;8.372;2022-09-23T00:23:10;3.07;;;2.40;;
12433;SDS011;6281;49.038;8.372;2022-09-23T00:25:37;3.33;;;2.60;;
12433;SDS011;6281;49.038;8.372;2022-09-23T00:28:04;3.87;;;2.60;;
12433;SDS011;6281;49.038;8.372;2022-09-23T00:30:31;3.03;;;2.70;;
12433;SDS011;6281;49.038;8.372;2022-09-23T00:32:58;2.97;;;2.67;;
12433;SDS011;6281;49.038;8.372;2022-09-23T00:35:25;3.80;;;2.77;;
12433;SDS011;6281;49.038;8.372;2022-09-23T00:37:52;3.97;;;2.67;;
12433;SDS011;6281;49.038;8.372;2022-09-23T00:40:20;4.23;;;2.50;;
12433;SDS011;6281;49.038;8.372;2022-09-23T00:42:47;2.93;;;2.40;;
12433;SDS011;6281;49.038;8.372;2022-09-23T00:45:16;10.53;;;3.00;;
12433;SDS011;6281;49.038;8.372;2022-09-23T00:47:45;4.67;;;2.50;;
12433;SDS011;6281;49.038;8.372;2022-09-23T00:50:14;3.10;;;2.80;;
12433;SDS011;6281;49.038;8.372;2022-09-23T00:52:48;4.23;;;3.10;;
12433;SDS011;6281;49.038;8.372;2022-09-23T00:55:17;4.77;;;2.90;;
12433;SDS011;6281;49.038;8.372;2022-09-23T00:57:49;4.10;;;2.60;;
12433;SDS011;6281;49.038;8.372;2022-09-23T01:00:18;9.97;;;3.73;;
12433;SDS011;6281;49.038;8.372;2022-09-23T01:02:46;3.40;;;2.80;;
12433;SDS011;6281;49.038;8.372;2022-09-23T01:05:13;4.83;;;3.13;;
12433;SDS011;6281;49.038;8.372;2022-09-23T01:07:41;4.07;;;2.90;;
12433;SDS011;6281;49.038;8.372;2022-09-23T01:10:08;4.27;;;3.00;;
12433;SDS011;6281;49.038;8.372;2022-09-23T01:15:41;3.17;;;2.87;;
12433;SDS011;6281;49.038;8.372;2022-09-23T01:18:17;3.97;;;3.00;;
12433;SDS011;6281;49.038;8.372;2022-09-23T01:20:56;4.23;;;3.00;;
12433;SDS011;6281;49.038;8.372;2022-09-23T01:23:40;3.40;;;2.90;;
12433;SDS011;6281;49.038;8.372;2022-09-23T01:26:31;5.27;;;2.90;;
12433;SDS011;6281;49.038;8.372;2022-09-23T01:32:19;3.23;;;2.93;;
12433;SDS011;6281;49.038;8.372;2022-09-23T01:34:56;2.80;;;2.60;;
12433;SDS011;6281;49.038;8.372;2022-09-23T01:37:32;3.40;;;2.93;;
12433;SDS011;6281;49.038;8.372;2022-09-23T01:40:09;4.17;;;2.80;;
12433;SDS011;6281;49.038;8.372;2022-09-23T01:42:46;3.27;;;2.63;;
12433;SDS011;6281;49.038;8.372;2022-09-23T01:45:23;4.67;;;2.87;;
12433;SDS011;6281;49.038;8.372;2022-09-23T01:47:59;3.17;;;2.87;;
12433;SDS011;6281;49.038;8.372;2022-09-23T01:50:29;3.83;;;2.97;;
12433;SDS011;6281;49.038;8.372;2022-09-23T01:53:19;4.47;;;3.23;;
12433;SDS011;6281;49.038;8.372;2022-09-23T01:55:52;3.57;;;3.20;;
12433;SDS011;6281;49.038;8.372;2022-09-23T01:58:23;4.40;;;3.40;;
12433;SDS011;6281;49.038;8.372;2022-09-23T02:00:54;4.70;;;2.97;;
12433;SDS011;6281;49.038;8.372;2022-09-23T02:03:27;3.17;;;2.87;;
12433;SDS011;6281;49.038;8.372;2022-09-23T02:06:00;4.07;;;3.07;;
12433;SDS011;6281;49.038;8.372;2022-09-23T02:08:33;3.90;;;3.17;;
12433;SDS011;6281;49.038;8.372;2022-09-23T02:11:05;4.57;;;3.20;;
12433;SDS011;6281;49.038;8.372;2022-09-23T02:13:35;3.60;;;3.30;;
12433;SDS011;6281;49.038;8.372;2022-09-23T02:16:08;3.43;;;3.13;;
12433;SDS011;6281;49.038;8.372;2022-09-23T02:18:43;3.83;;;3.17;;
12433;SDS011;6281;49.038;8.372;2022-09-23T02:21:13;3.40;;;3.10;;
12433;SDS011;6281;49.038;8.372;2022-09-23T02:23:43;5.00;;;3.20;;
12433;SDS011;6281;49.038;8.372;2022-09-23T02:26:16;3.50;;;3.20;;
12433;SDS011;6281;49.038;8.372;2022-09-23T02:28:48;4.23;;;3.10;;
12433;SDS011;6281;49.038;8.372;2022-09-23T02:31:24;4.03;;;3.10;;
12433;SDS011;6281;49.038;8.372;2022-09-23T02:33:58;3.87;;;3.57;;
12433;SDS011;6281;49.038;8.372;2022-09-23T02:36:34;3.40;;;3.10;;
12433;SDS011;6281;49.038;8.372;2022-09-23T02:39:10;5.17;;;3.43;;
12433;SDS011;6281;49.038;8.372;2022-09-23T02:41:40;4.77;;;3.40;;
12433;SDS011;6281;49.038;8.372;2022-09-23T02:44:14;3.47;;;3.17;;
12433;SDS011;6281;49.038;8.372;2022-09-23T02:46:43;3.97;;;3.57;;
12433;SDS011;6281;49.038;8.372;2022-09-23T02:49:13;5.23;;;3.33;;
12433;SDS011;6281;49.038;8.372;2022-09-23T02:51:44;4.87;;;3.20;;
12433;SDS011;6281;49.038;8.372;2022-09-23T02:54:12;3.73;;;3.23;;
12433;SDS011;6281;49.038;8.372;2022-09-23T02:56:42;3.30;;;2.90;;
12433;SDS011;6281;49.038;8.372;2022-09-23T02:59:09;4.80;;;3.33;;
12433;SDS011;6281;49.038;8.372;2022-09-23T03:01:39;5.40;;;3.50;;
12433;SDS011;6281;49.038;8.372;2022-09-23T03:04:20;3.97;;;3.37;;
12433;SDS011;6281;49.038;8.372;2022-09-23T03:06:58;3.93;;;3.50;;
12433;SDS011;6281;49.038;8.372;2022-09-23T03:09:28;5.70;;;2.97;;
12433;SDS011;6281;49.038;8.372;2022-09-23T03:12:02;5.77;;;3.50;;
12433;SDS011;6281;49.038;8.372;2022-09-23T03:14:36;4.03;;;3.30;;
12433;SDS011;6281;49.038;8.372;2022-09-23T03:17:09;3.00;;;2.70;;
12433;SDS011;6281;49.038;8.372;2022-09-23T03:19:43;6.00;;;3.40;;
12433;SDS011;6281;49.038;8.372;2022-09-23T03:22:15;5.63;;;3.40;;
12433;SDS011;6281;49.038;8.372;2022-09-23T03:24:46;3.93;;;3.40;;
12433;SDS011;6281;49.038;8.372;2022-09-23T03:27:17;3.63;;;3.33;;
12433;SDS011;6281;49.038;8.372;2022-09-23T03:29:48;3.70;;;3.40;;
12433;SDS011;6281;49.038;8.372;2022-09-23T03:32:18;3.87;;;3.47;;
12433;SDS011;6281;49.038;8.372;2022-09-23T03:34:49;3.97;;;3.37;;
12433;SDS011;6281;49.038;8.372;2022-09-23T03:37:19;3.77;;;2.87;;
12433;SDS011;6281;49.038;8.372;2022-09-23T03:39:52;3.93;;;3.27;;
12433;SDS011;6281;49.038;8.372;2022-09-23T03:42:23;5.00;;;3.13;;
12433;SDS011;6281;49.038;8.372;2022-09-23T03:44:52;3.80;;;3.30;;
12433;SDS011;6281;49.038;8.372;2022-09-23T03:47:21;3.57;;;3.27;;
12433;SDS011;6281;49.038;8.372;2022-09-23T03:49:51;3.43;;;3.07;;
12433;SDS011;6281;49.038;8.372;2022-09-23T03:52:21;3.70;;;3.20;;
12433;SDS011;6281;49.038;8.372;2022-09-23T03:54:49;4.17;;;3.20;;
12433;SDS011;6281;49.038;8.372;2022-09-23T03:57:17;5.97;;;3.60;;
12433;SDS011;6281;49.038;8.372;2022-09-23T03:59:46;3.47;;;3.17;;
12433;SDS011;6281;49.038;8.372;2022-09-23T04:02:12;3.67;;;3.30;;
12433;SDS011;6281;49.038;8.372;2022-09-23T04:04:40;5.10;;;3.47;;
12433;SDS011;6281;49.038;8.372;2022-09-23T04:07:09;4.87;;;3.63;;
12433;SDS011;6281;49.038;8.372;2022-09-23T04:09:36;5.17;;;3.10;;
12433;SDS011;6281;49.038;8.372;2022-09-23T04:12:04;6.10;;;3.40;;
12433;SDS011;6281;49.038;8.372;2022-09-23T04:14:32;3.93;;;3.23;;
12433;SDS011;6281;49.038;8.372;2022-09-23T04:16:59;3.73;;;3.30;;
12433;SDS011;6281;49.038;8.372;2022-09-23T04:19:26;3.73;;;3.40;;
12433;SDS011;6281;49.038;8.372;2022-09-23T04:21:53;6.17;;;3.40;;
12433;SDS011;6281;49.038;8.372;2022-09-23T04:24:22;3.70;;;3.20;;
12433;SDS011;6281;49.038;8.372;2022-09-23T04:26:50;4.00;;;3.10;;
12433;SDS011;6281;49.038;8.372;2022-09-23T04:29:18;4.13;;;3.40;;
12433;SDS011;6281;49.038;8.372;2022-09-23T04:31:45;4.30;;;3.30;;
12433;SDS011;6281;49.038;8.372;2022-09-23T04:34:13;3.90;;;3.50;;
12433;SDS011;6281;49.038;8.372;2022-09-23T04:36:41;3.73;;;3.43;;
12433;SDS011;6281;49.038;8.372;2022-09-23T04:39:09;3.57;;;3.27;;
12433;SDS011;6281;49.038;8.372;2022-09-23T04:41:38;4.27;;;3.73;;
12433;SDS011;6281;49.038;8.372;2022-09-23T04:44:05;5.03;;;3.40;;
12433;SDS011;6281;49.038;8.372;2022-09-23T04:46:32;4.10;;;3.60;;
12433;SDS011;6281;49.038;8.372;2022-09-23T04:48:59;3.93;;;3.53;;
12433;SDS011;6281;49.038;8.372;2022-09-23T04:51:26;4.30;;;3.20;;
12433;SDS011;6281;49.038;8.372;2022-09-23T04:53:53;4.73;;;3.40;;
12433;SDS011;6281;49.038;8.372;2022-09-23T04:56:22;4.53;;;3.90;;
12433;SDS011;6281;49.038;8.372;2022-09-23T04:58:52;4.60;;;3.57;;
12433;SDS011;6281;49.038;8.372;2022-09-23T05:01:20;3.50;;;3.20;;
12433;SDS011;6281;49.038;8.372;2022-09-23T05:03:49;6.20;;;3.37;;
12433;SDS011;6281;49.038;8.372;2022-09-23T05:06:17;4.57;;;3.50;;
12433;SDS011;6281;49.038;8.372;2022-09-23T05:08:45;4.87;;;3.23;;
12433;SDS011;6281;49.038;8.372;2022-09-23T05:11:13;5.23;;;3.40;;
12433;SDS011;6281;49.038;8.372;2022-09-23T05:13:41;5.40;;;3.80;;
12433;SDS011;6281;49.038;8.372;2022-09-23T05:16:10;6.23;;;3.80;;
12433;SDS011;6281;49.038;8.372;2022-09-23T05:18:38;4.27;;;3.57;;
12433;SDS011;6281;49.038;8.372;2022-09-23T05:21:07;5.60;;;3.50;;
12433;SDS011;6281;49.038;8.372;2022-09-23T05:23:35;15.53;;;4.60;;
12433;SDS011;6281;49.038;8.372;2022-09-23T05:26:04;19.70;;;4.87;;
12433;SDS011;6281;49.038;8.372;2022-09-23T05:28:33;9.53;;;4.00;;
12433;SDS011;6281;49.038;8.372;2022-09-23T05:31:01;8.53;;;3.63;;
12433;SDS011;6281;49.038;8.372;2022-09-23T05:33:30;7.90;;;3.63;;
12433;SDS011;6281;49.038;8.372;2022-09-23T05:35:58;7.87;;;3.50;;
12433;SDS011;6281;49.038;8.372;2022-09-23T05:38:26;7.47;;;3.33;;
12433;SDS011;6281;49.038;8.372;2022-09-23T05:40:56;8.20;;;3.57;;
12433;SDS011;6281;49.038;8.372;2022-09-23T05:43:24;3.77;;;3.33;;
12433;SDS011;6281;49.038;8.372;2022-09-23T05:45:53;3.43;;;3.13;;
12433;SDS011;6281;49.038;8.372;2022-09-23T05:48:27;4.60;;;3.57;;
12433;SDS011;6281;49.038;8.372;2022-09-23T05:50:56;9.23;;;3.43;;
12433;SDS011;6281;49.038;8.372;2022-09-23T05:53:24;8.53;;;3.87;;
12433;SDS011;6281;49.038;8.372;2022-09-23T05:55:51;6.47;;;3.70;;
12433;SDS011;6281;49.038;8.372;2022-09-23T05:58:18;4.90;;;4.03;;
12433;SDS011;6281;49.038;8.372;2022-09-23T06:00:47;5.10;;;3.73;;
12433;SDS011;6281;49.038;8.372;2022-09-23T06:03:15;4.63;;;3.60;;
12433;SDS011;6281;49.038;8.372;2022-09-23T06:05:43;5.17;;;3.67;;
12433;SDS011;6281;49.038;8.372;2022-09-23T06:08:12;5.73;;;3.60;;
12433;SDS011;6281;49.038;8.372;2022-09-23T06:10:40;4.77;;;3.57;;
12433;SDS011;6281;49.038;8.372;2022-09-23T06:13:08;4.23;;;3.80;;
12433;SDS011;6281;49.038;8.372;2022-09-23T06:15:36;5.40;;;3.90;;
12433;SDS011;6281;49.038;8.372;2022-09-23T06:18:03;4.97;;;4.03;;
12433;SDS011;6281;49.038;8.372;2022-09-23T06:20:31;9.13;;;4.10;;
12433;SDS011;6281;49.038;8.372;2022-09-23T06:23:01;6.13;;;4.20;;
12433;SDS011;6281;49.038;8.372;2022-09-23T06:25:30;5.57;;;4.27;;
12433;SDS011;6281;49.038;8.372;2022-09-23T06:27:57;10.93;;;4.50;;
12433;SDS011;6281;49.038;8.372;2022-09-23T06:30:25;7.67;;;4.50;;
12433;SDS011;6281;49.038;8.372;2022-09-23T06:32:53;5.43;;;4.87;;
12433;SDS011;6281;49.038;8.372;2022-09-23T06:35:22;7.30;;;6.37;;
12433;SDS011;6281;49.038;8.372;2022-09-23T06:37:50;8.90;;;6.47;;
12433;SDS011;6281;49.038;8.372;2022-09-23T06:40:17;7.30;;;5.63;;
12433;SDS011;6281;49.038;8.372;2022-09-23T06:42:46;8.33;;;5.83;;
12433;SDS011;6281;49.038;8.372;2022-09-23T06:45:13;12.13;;;5.73;;
12433;SDS011;6281;49.038;8.372;2022-09-23T06:47:41;9.93;;;5.23;;
12433;SDS011;6281;49.038;8.372;2022-09-23T06:50:09;11.10;;;5.20;;
12433;SDS011;6281;49.038;8.372;2022-09-23T06:52:37;9.63;;;5.30;;
12433;SDS011;6281;49.038;8.372;2022-09-23T06:55:04;10.83;;;5.00;;
12433;SDS011;6281;49.038;8.372;2022-09-23T06:57:34;9.80;;;5.50;;
12433;SDS011;6281;49.038;8.372;2022-09-23T07:00:02;6.73;;;4.97;;
12433;SDS011;6281;49.038;8.372;2022-09-23T07:02:30;6.00;;;4.70;;
12433;SDS011;6281;49.038;8.372;2022-09-23T07:04:57;7.10;;;5.17;;
12433;SDS011;6281;49.038;8.372;2022-09-23T07:07:23;6.10;;;5.13;;
12433;SDS011;6281;49.038;8.372;2022-09-23T07:09:50;8.77;;;4.93;;
12433;SDS011;6281;49.038;8.372;2022-09-23T07:12:17;9.87;;;4.87;;
12433;SDS011;6281;49.038;8.372;2022-09-23T07:14:44;7.53;;;4.93;;
12433;SDS011;6281;49.038;8.372;2022-09-23T07:17:13;8.17;;;5.00;;
12433;SDS011;6281;49.038;8.372;2022-09-23T07:19:40;7.30;;;5.10;;
12433;SDS011;6281;49.038;8.372;2022-09-23T07:22:07;5.10;;;4.60;;
12433;SDS011;6281;49.038;8.372;2022-09-23T07:24:34;7.20;;;4.97;;
12433;SDS011;6281;49.038;8.372;2022-09-23T07:27:01;6.37;;;5.10;;
12433;SDS011;6281;49.038;8.372;2022-09-23T07:29:29;5.63;;;5.00;;
12433;SDS011;6281;49.038;8.372;2022-09-23T07:31:56;5.87;;;4.30;;
12433;SDS011;6281;49.038;8.372;2022-09-23T07:34:24;8.47;;;5.13;;
12433;SDS011;6281;49.038;8.372;2022-09-23T07:36:52;7.00;;;4.77;;
12433;SDS011;6281;49.038;8.372;2022-09-23T07:39:19;7.77;;;5.00;;
12433;SDS011;6281;49.038;8.372;2022-09-23T07:41:46;11.87;;;5.37;;
12433;SDS011;6281;49.038;8.372;2022-09-23T07:44:13;9.47;;;5.70;;
12433;SDS011;6281;49.038;8.372;2022-09-23T07:46:40;6.03;;;5.10;;
12433;SDS011;6281;49.038;8.372;2022-09-23T07:49:07;6.60;;;5.53;;
12433;SDS011;6281;49.038;8.372;2022-09-23T07:51:36;7.97;;;5.20;;
12433;SDS011;6281;49.038;8.372;2022-09-23T07:54:04;7.40;;;5.13;;
12433;SDS011;6281;49.038;8.372;2022-09-23T07:56:32;6.77;;;4.60;;
12433;SDS011;6281;49.038;8.372;2022-09-23T07:59:00;7.63;;;5.13;;
12433;SDS011;6281;49.038;8.372;2022-09-23T08:01:28;7.93;;;4.53;;
12433;SDS011;6281;49.038;8.372;2022-09-23T08:04:00;7.17;;;4.73;;
12433;SDS011;6281;49.038;8.372;2022-09-23T08:06:29;7.80;;;4.90;;
12433;SDS011;6281;49.038;8.372;2022-09-23T08:08:58;7.40;;;4.70;;
12433;SDS011;6281;49.038;8.372;2022-09-23T08:11:26;6.70;;;4.40;;
12433;SDS011;6281;49.038;8.372;2022-09-23T08:13:56;5.90;;;4.40;;
12433;SDS011;6281;49.038;8.372;2022-09-23T08:16:24;6.63;;;4.53;;
12433;SDS011;6281;49.038;8.372;2022-09-23T08:18:51;13.90;;;5.43;;
12433;SDS011;6281;49.038;8.372;2022-09-23T08:21:18;7.60;;;5.07;;
12433;SDS011;6281;49.038;8.372;2022-09-23T08:23:46;6.67;;;5.40;;
12433;SDS011;6281;49.038;8.372;2022-09-23T08:26:15;13.07;;;6.03;;
12433;SDS011;6281;49.038;8.372;2022-09-23T08:28:42;7.50;;;5.27;;
12433;SDS011;6281;49.038;8.372;2022-09-23T08:31:09;6.17;;;4.97;;
12433;SDS011;6281;49.038;8.372;2022-09-23T08:33:37;6.23;;;4.67;;
12433;SDS011;6281;49.038;8.372;2022-09-23T08:36:05;5.97;;;4.63;;
12433;SDS011;6281;49.038;8.372;2022-09-23T08:38:33;7.57;;;5.00;;
12433;SDS011;6281;49.038;8.372;2022-09-23T08:41:02;8.60;;;5.53;;
12433;SDS011;6281;49.038;8.372;2022-09-23T08:46:21;7.40;;;5.80;;
12433;SDS011;6281;49.038;8.372;2022-09-23T08:48:51;11.57;;;5.53;;
12433;SDS011;6281;49.038;8.372;2022-09-23T08:51:21;8.03;;;5.40;;
12433;SDS011;6281;49.038;8.372;2022-09-23T08:53:51;6.90;;;5.30;;
12433;SDS011;6281;49.038;8.372;2022-09-23T08:56:18;6.67;;;5.00;;
12433;SDS011;6281;49.038;8.372;2022-09-23T08:58:53;6.33;;;4.60;;
12433;SDS011;6281;49.038;8.372;2022-09-23T09:01:27;5.63;;;4.30;;
12433;SDS011;6281;49.038;8.372;2022-09-23T09:04:04;5.33;;;4.63;;
12433;SDS011;6281;49.038;8.372;2022-09-23T09:06:52;6.40;;;4.50;;
12433;SDS011;6281;49.038;8.372;2022-09-23T09:09:31;6.27;;;3.97;;
12433;SDS011;6281;49.038;8.372;2022-09-23T09:12:10;5.90;;;3.83;;
12433;SDS011;6281;49.038;8.372;2022-09-23T09:14:46;4.80;;;3.70;;
12433;SDS011;6281;49.038;8.372;2022-09-23T09:17:27;5.10;;;4.07;;
12433;SDS011;6281;49.038;8.372;2022-09-23T09:20:06;5.03;;;4.37;;
12433;SDS011;6281;49.038;8.372;2022-09-23T09:22:49;4.10;;;3.70;;
12433;SDS011;6281;49.038;8.372;2022-09-23T09:25:40;5.07;;;3.70;;
12433;SDS011;6281;49.038;8.372;2022-09-23T09:28:22;5.13;;;3.80;;
12433;SDS011;6281;49.038;8.372;2022-09-23T09:31:01;6.23;;;3.80;;
12433;SDS011;6281;49.038;8.372;2022-09-23T09:33:43;5.67;;;3.90;;
12433;SDS011;6281;49.038;8.372;2022-09-23T09:36:22;4.30;;;3.73;;
12433;SDS011;6281;49.038;8.372;2022-09-23T09:38:59;5.60;;;4.03;;
12433;SDS011;6281;49.038;8.372;2022-09-23T09:41:27;5.80;;;4.30;;
12433;SDS011;6281;49.038;8.372;2022-09-23T09:43:55;5.77;;;3.80;;
12433;SDS011;6281;49.038;8.372;2022-09-23T09:46:30;6.00;;;4.37;;
12433;SDS011;6281;49.038;8.372;2022-09-23T09:49:10;5.60;;;4.20;;
12433;SDS011;6281;49.038;8.372;2022-09-23T09:51:49;5.87;;;4.60;;
12433;SDS011;6281;49.038;8.372;2022-09-23T09:54:48;5.80;;;4.07;;
12433;SDS011;6281;49.038;8.372;2022-09-23T09:57:17;5.27;;;4.03;;
12433;SDS011;6281;49.038;8.372;2022-09-23T09:59:57;6.10;;;4.43;;
12433;SDS011;6281;49.038;8.372;2022-09-23T10:02:50;6.50;;;4.70;;
12433;SDS011;6281;49.038;8.372;2022-09-23T10:05:24;5.23;;;4.20;;
12433;SDS011;6281;49.038;8.372;2022-09-23T10:07:53;4.97;;;3.80;;
12433;SDS011;6281;49.038;8.372;2022-09-23T10:10:21;9.07;;;4.30;;
12433;SDS011;6281;49.038;8.372;2022-09-23T10:12:50;5.10;;;4.23;;
12433;SDS011;6281;49.038;8.372;2022-09-23T10:15:27;6.97;;;4.33;;
12433;SDS011;6281;49.038;8.372;2022-09-23T10:17:58;4.53;;;3.50;;
12433;SDS011;6281;49.038;8.372;2022-09-23T10:20:37;6.03;;;4.43;;
12433;SDS011;6281;49.038;8.372;2022-09-23T10:23:05;5.97;;;3.97;;
12433;SDS011;6281;49.038;8.372;2022-09-23T10:25:34;5.20;;;3.67;;
12433;SDS011;6281;49.038;8.372;2022-09-23T10:31:03;5.97;;;4.00;;
12433;SDS011;6281;49.038;8.372;2022-09-23T10:33:32;3.90;;;3.20;;
12433;SDS011;6281;49.038;8.372;2022-09-23T10:36:07;8.40;;;3.77;;
12433;SDS011;6281;49.038;8.372;2022-09-23T10:38:35;4.40;;;3.60;;
12433;SDS011;6281;49.038;8.372;2022-09-23T10:41:02;5.27;;;3.60;;
12433;SDS011;6281;49.038;8.372;2022-09-23T10:43:58;5.33;;;3.50;;
12433;SDS011;6281;49.038;8.372;2022-09-23T10:46:57;4.87;;;3.47;;
12433;SDS011;6281;49.038;8.372;2022-09-23T10:49:40;4.03;;;3.50;;
12433;SDS011;6281;49.038;8.372;2022-09-23T10:52:37;3.77;;;3.00;;
12433;SDS011;6281;49.038;8.372;2022-09-23T10:55:23;6.63;;;3.70;;
12433;SDS011;6281;49.038;8.372;2022-09-23T10:58:06;4.10;;;3.60;;
12433;SDS011;6281;49.038;8.372;2022-09-23T11:00:44;3.77;;;3.07;;
12433;SDS011;6281;49.038;8.372;2022-09-23T11:03:22;4.47;;;3.70;;
12433;SDS011;6281;49.038;8.372;2022-09-23T11:06:07;3.87;;;3.27;;
12433;SDS011;6281;49.038;8.372;2022-09-23T11:08:50;4.73;;;3.10;;
12433;SDS011;6281;49.038;8.372;2022-09-23T11:11:32;4.43;;;2.63;;
12433;SDS011;6281;49.038;8.372;2022-09-23T11:14:11;4.67;;;3.20;;
12433;SDS011;6281;49.038;8.372;2022-09-23T11:16:52;4.23;;;2.90;;
12433;SDS011;6281;49.038;8.372;2022-09-23T11:22:26;5.83;;;2.87;;
12433;SDS011;6281;49.038;8.372;2022-09-23T11:28:15;4.60;;;2.93;;
12433;SDS011;6281;49.038;8.372;2022-09-23T11:30:56;5.07;;;2.93;;
12433;SDS011;6281;49.038;8.372;2022-09-23T11:33:34;3.80;;;2.10;;
12433;SDS011;6281;49.038;8.372;2022-09-23T11:36:11;3.37;;;2.80;;
12433;SDS011;6281;49.038;8.372;2022-09-23T11:38:49;3.23;;;2.30;;
12433;SDS011;6281;49.038;8.372;2022-09-23T11:41:20;5.07;;;2.30;;
12433;SDS011;6281;49.038;8.372;2022-09-23T11:43:51;4.00;;;2.30;;
12433;SDS011;6281;49.038;8.372;2022-09-23T11:46:26;3.90;;;1.93;;
12433;SDS011;6281;49.038;8.372;2022-09-23T11:49:01;3.27;;;2.10;;
12433;SDS011;6281;49.038;8.372;2022-09-23T11:51:35;7.17;;;1.90;;
12433;SDS011;6281;49.038;8.372;2022-09-23T11:54:11;3.47;;;2.43;;
12433;SDS011;6281;49.038;8.372;2022-09-23T11:56:45;2.90;;;2.10;;
12433;SDS011;6281;49.038;8.372;2022-09-23T11:59:18;4.83;;;2.30;;
12433;SDS011;6281;49.038;8.372;2022-09-23T12:01:55;2.50;;;1.90;;
12433;SDS011;6281;49.038;8.372;2022-09-23T12:04:27;1.90;;;1.50;;
12433;SDS011;6281;49.038;8.372;2022-09-23T12:06:59;3.53;;;1.80;;
12433;SDS011;6281;49.038;8.372;2022-09-23T12:09:33;2.17;;;1.70;;
12433;SDS011;6281;49.038;8.372;2022-09-23T12:12:05;2.27;;;2.03;;
12433;SDS011;6281;49.038;8.372;2022-09-23T12:14:51;2.53;;;1.90;;
12433;SDS011;6281;49.038;8.372;2022-09-23T12:17:26;2.40;;;1.60;;
12433;SDS011;6281;49.038;8.372;2022-09-23T12:20:17;2.63;;;2.00;;
12433;SDS011;6281;49.038;8.372;2022-09-23T12:23:00;2.90;;;2.00;;
12433;SDS011;6281;49.038;8.372;2022-09-23T12:25:41;4.87;;;2.20;;
12433;SDS011;6281;49.038;8.372;2022-09-23T12:28:12;1.80;;;1.60;;
12433;SDS011;6281;49.038;8.372;2022-09-23T12:30:43;3.90;;;1.77;;
12433;SDS011;6281;49.038;8.372;2022-09-23T12:33:15;3.67;;;1.70;;
12433;SDS011;6281;49.038;8.372;2022-09-23T12:35:49;2.50;;;1.90;;
12433;SDS011;6281;49.038;8.372;2022-09-23T12:38:20;4.37;;;2.00;;
12433;SDS011;6281;49.038;8.372;2022-09-23T12:40:52;2.63;;;1.57;;
12433;SDS011;6281;49.038;8.372;2022-09-23T12:43:26;2.40;;;2.00;;
12433;SDS011;6281;49.038;8.372;2022-09-23T12:48:56;3.10;;;2.40;;
12433;SDS011;6281;49.038;8.372;2022-09-23T12:51:26;4.73;;;2.00;;
12433;SDS011;6281;49.038;8.372;2022-09-23T12:53:58;6.10;;;2.15;;
12433;SDS011;6281;49.038;8.372;2022-09-23T12:57:00;4.72;;;2.00;;
12433;SDS011;6281;49.038;8.372;2022-09-23T12:59:30;10.50;;;2.33;;
12433;SDS011;6281;49.038;8.372;2022-09-23T13:02:31;2.97;;;2.10;;
12433;SDS011;6281;49.038;8.372;2022-09-23T13:05:13;2.70;;;2.07;;
12433;SDS011;6281;49.038;8.372;2022-09-23T13:08:03;2.83;;;2.30;;
12433;SDS011;6281;49.038;8.372;2022-09-23T13:10:35;4.93;;;1.90;;
12433;SDS011;6281;49.038;8.372;2022-09-23T13:13:08;4.27;;;2.43;;
12433;SDS011;6281;49.038;8.372;2022-09-23T13:15:43;9.33;;;2.70;;
12433;SDS011;6281;49.038;8.372;2022-09-23T13:18:23;4.63;;;2.23;;
12433;SDS011;6281;49.038;8.372;2022-09-23T13:24:33;8.20;;;2.53;;
12433;SDS011;6281;49.038;8.372;2022-09-23T13:27:04;6.20;;;2.40;;
12433;SDS011;6281;49.038;8.372;2022-09-23T13:29:43;4.27;;;2.20;;
12433;SDS011;6281;49.038;8.372;2022-09-23T13:32:13;3.03;;;1.87;;
12433;SDS011;6281;49.038;8.372;2022-09-23T13:34:42;4.60;;;2.00;;
12433;SDS011;6281;49.038;8.372;2022-09-23T13:37:19;5.93;;;1.90;;
12433;SDS011;6281;49.038;8.372;2022-09-23T13:39:48;4.57;;;2.20;;
12433;SDS011;6281;49.038;8.372;2022-09-23T13:42:17;5.43;;;2.43;;
12433;SDS011;6281;49.038;8.372;2022-09-23T13:44:52;5.07;;;2.27;;
12433;SDS011;6281;49.038;8.372;2022-09-23T13:47:21;5.53;;;2.30;;
12433;SDS011;6281;49.038;8.372;2022-09-23T13:49:49;4.03;;;2.13;;
12433;SDS011;6281;49.038;8.372;2022-09-23T13:52:21;3.57;;;2.50;;
12433;SDS011;6281;49.038;8.372;2022-09-23T13:54:50;4.80;;;2.13;;
12433;SDS011;6281;49.038;8.372;2022-09-23T13:57:24;5.07;;;2.20;;
12433;SDS011;6281;49.038;8.372;2022-09-23T13:59:54;2.90;;;2.20;;
12433;SDS011;6281;49.038;8.372;2022-09-23T14:02:25;4.30;;;2.43;;
12433;SDS011;6281;49.038;8.372;2022-09-23T14:04:54;3.37;;;2.40;;
12433;SDS011;6281;49.038;8.372;2022-09-23T14:07:22;2.47;;;2.13;;
12433;SDS011;6281;49.038;8.372;2022-09-23T14:09:51;2.83;;;1.90;;
12433;SDS011;6281;49.038;8.372;2022-09-23T14:12:20;3.23;;;2.30;;
12433;SDS011;6281;49.038;8.372;2022-09-23T14:14:48;5.67;;;1.90;;
12433;SDS011;6281;49.038;8.372;2022-09-23T14:17:18;3.63;;;1.90;;
12433;SDS011;6281;49.038;8.372;2022-09-23T14:19:47;4.27;;;2.17;;
12433;SDS011;6281;49.038;8.372;2022-09-23T14:22:22;5.57;;;2.20;;
12433;SDS011;6281;49.038;8.372;2022-09-23T14:24:50;3.80;;;2.73;;
12433;SDS011;6281;49.038;8.372;2022-09-23T14:27:19;3.17;;;2.40;;
12433;SDS011;6281;49.038;8.372;2022-09-23T14:29:52;4.87;;;2.43;;
12433;SDS011;6281;49.038;8.372;2022-09-23T14:32:22;5.17;;;2.60;;
12433;SDS011;6281;49.038;8.372;2022-09-23T14:35:03;5.40;;;2.87;;
12433;SDS011;6281;49.038;8.372;2022-09-23T14:37:37;4.43;;;2.17;;
12433;SDS011;6281;49.038;8.372;2022-09-23T14:40:24;6.67;;;2.60;;
12433;SDS011;6281;49.038;8.372;2022-09-23T14:42:55;3.97;;;2.47;;
12433;SDS011;6281;49.038;8.372;2022-09-23T14:45:29;4.80;;;2.10;;
12433;SDS011;6281;49.038;8.372;2022-09-23T14:48:00;6.50;;;2.70;;
12433;SDS011;6281;49.038;8.372;2022-09-23T14:50:30;4.73;;;2.20;;
12433;SDS011;6281;49.038;8.372;2022-09-23T14:53:15;2.60;;;1.93;;
12433;SDS011;6281;49.038;8.372;2022-09-23T14:56:06;3.93;;;2.10;;
12433;SDS011;6281;49.038;8.372;2022-09-23T14:58:49;9.37;;;2.80;;
12433;SDS011;6281;49.038;8.372;2022-09-23T15:04:12;5.00;;;2.43;;
12433;SDS011;6281;49.038;8.372;2022-09-23T15:06:42;2.30;;;2.10;;
12433;SDS011;6281;49.038;8.372;2022-09-23T15:09:15;3.50;;;2.57;;
12433;SDS011;6281;49.038;8.372;2022-09-23T15:11:49;2.57;;;2.30;;
12433;SDS011;6281;49.038;8.372;2022-09-23T15:14:24;2.57;;;1.97;;
12433;SDS011;6281;49.038;8.372;2022-09-23T15:16:53;2.53;;;2.30;;
12433;SDS011;6281;49.038;8.372;2022-09-23T15:19:21;4.53;;;2.40;;
12433;SDS011;6281;49.038;8.372;2022-09-23T15:21:49;4.50;;;2.10;;
12433;SDS011;6281;49.038;8.372;2022-09-23T15:24:35;3.97;;;2.03;;
12433;SDS011;6281;49.038;8.372;2022-09-23T15:27:15;5.00;;;2.50;;
12433;SDS011;6281;49.038;8.372;2022-09-23T15:30:00;3.60;;;2.40;;
12433;SDS011;6281;49.038;8.372;2022-09-23T15:32:41;4.60;;;2.50;;
12433;SDS011;6281;49.038;8.372;2022-09-23T15:35:11;5.77;;;2.40;;
12433;SDS011;6281;49.038;8.372;2022-09-23T15:37:40;2.30;;;2.07;;
12433;SDS011;6281;49.038;8.372;2022-09-23T15:40:09;4.33;;;2.63;;
12433;SDS011;6281;49.038;8.372;2022-09-23T15:42:42;5.37;;;2.33;;
12433;SDS011;6281;49.038;8.372;2022-09-23T15:45:11;7.63;;;2.40;;
12433;SDS011;6281;49.038;8.372;2022-09-23T15:47:38;4.10;;;2.10;;
12433;SDS011;6281;49.038;8.372;2022-09-23T15:50:05;5.63;;;2.47;;
12433;SDS011;6281;49.038;8.372;2022-09-23T15:52:34;3.80;;;2.90;;
12433;SDS011;6281;49.038;8.372;2022-09-23T15:55:04;3.10;;;2.80;;
12433;SDS011;6281;49.038;8.372;2022-09-23T15:57:39;3.50;;;2.60;;